createdAt,value
2023-03-17T00:01:38.259Z,13.70
2023-03-17T00:04:07.112Z,13.80
2023-03-17T00:06:35.362Z,15.20
2023-03-17T00:09:03.734Z,15.90
2023-03-17T00:11:32.399Z,14.70
2023-03-17T00:14:01.756Z,13.70
2023-03-17T00:16:31.843Z,13.20
2023-03-17T00:19:06.547Z,13.80
2023-03-17T00:21:35.977Z,15.40
2023-03-17T00:24:06.732Z,17.00
2023-03-17T00:26:36.279Z,15.60
2023-03-17T00:29:06.164Z,17.30
2023-03-17T00:31:35.215Z,19.50
2023-03-17T00:34:08.179Z,21.50
2023-03-17T00:36:37.568Z,24.20
2023-03-17T00:39:07.129Z,27.50
2023-03-17T00:41:37.822Z,32.00
2023-03-17T00:44:08.229Z,36.90
2023-03-17T00:46:38.328Z,34.10
2023-03-17T00:49:18.921Z,42.80
2023-03-17T00:51:47.606Z,49.80
2023-03-17T00:54:16.985Z,52.10
2023-03-17T00:56:45.870Z,55.10
2023-03-17T00:59:38.349Z,55.80
2023-03-17T01:02:07.371Z,60.00
2023-03-17T01:04:35.821Z,54.00
2023-03-17T01:07:05.098Z,54.20
2023-03-17T01:09:34.202Z,42.60
2023-03-17T01:12:02.707Z,33.90
2023-03-17T01:14:37.816Z,31.60
2023-03-17T01:17:13.078Z,29.40
2023-03-17T01:19:46.525Z,28.20
2023-03-17T01:22:15.717Z,25.00
2023-03-17T01:24:43.970Z,24.80
2023-03-17T01:27:12.570Z,30.60
2023-03-17T01:29:41.789Z,32.70
2023-03-17T01:32:10.870Z,37.20
2023-03-17T01:34:39.956Z,33.20
2023-03-17T01:37:09.876Z,32.60
2023-03-17T01:39:42.229Z,33.30
2023-03-17T01:42:30.373Z,33.70
2023-03-17T01:45:07.404Z,30.10
2023-03-17T01:47:36.357Z,22.50
2023-03-17T01:50:07.720Z,19.30
2023-03-17T01:52:38.715Z,19.20
2023-03-17T01:55:18.067Z,20.70
2023-03-17T01:57:51.605Z,21.30
2023-03-17T02:00:21.433Z,22.40
2023-03-17T02:02:52.950Z,20.30
2023-03-17T02:05:24.307Z,17.60
2023-03-17T02:07:54.587Z,15.90
2023-03-17T02:10:33.734Z,15.50
2023-03-17T02:13:05.699Z,15.60
2023-03-17T02:16:00.655Z,15.50
2023-03-17T02:18:28.898Z,14.80
2023-03-17T02:20:57.163Z,14.50
2023-03-17T02:23:26.396Z,15.30
2023-03-17T02:25:54.846Z,14.50
2023-03-17T02:28:26.218Z,13.80
2023-03-17T02:30:55.083Z,13.50
2023-03-17T02:33:27.857Z,13.60
2023-03-17T02:35:57.643Z,14.00
2023-03-17T02:38:26.356Z,12.90
2023-03-17T02:40:54.660Z,14.00
2023-03-17T02:43:23.839Z,13.50
2023-03-17T02:45:52.021Z,14.60
2023-03-17T02:48:20.681Z,14.60
2023-03-17T02:50:54.906Z,14.90
2023-03-17T02:53:27.310Z,14.60
2023-03-17T02:55:57.926Z,15.80
2023-03-17T02:58:26.140Z,13.40
2023-03-17T03:00:54.803Z,13.60
2023-03-17T03:03:23.463Z,13.20
2023-03-17T03:05:55.605Z,13.40
2023-03-17T03:08:25.609Z,13.70
2023-03-17T03:10:55.143Z,12.60
2023-03-17T03:13:48.760Z,12.30
2023-03-17T03:16:17.602Z,12.80
2023-03-17T03:18:50.230Z,12.10
2023-03-17T03:21:18.995Z,12.20
2023-03-17T03:23:47.241Z,11.60
2023-03-17T03:26:16.955Z,11.80
2023-03-17T03:28:45.231Z,11.60
2023-03-17T03:31:14.069Z,11.00
2023-03-17T03:33:44.276Z,11.80
2023-03-17T03:36:16.589Z,12.20
2023-03-17T03:38:48.077Z,10.90
2023-03-17T03:41:16.849Z,11.70
2023-03-17T03:43:47.125Z,11.90
2023-03-17T03:46:15.910Z,11.90
2023-03-17T03:48:44.211Z,12.70
2023-03-17T03:51:12.493Z,13.90
2023-03-17T03:53:41.118Z,14.10
2023-03-17T03:56:10.117Z,15.20
2023-03-17T03:58:38.698Z,16.60
2023-03-17T04:03:40.409Z,15.80
2023-03-17T04:06:08.744Z,14.20
2023-03-17T04:08:37.719Z,15.20
2023-03-17T04:11:06.388Z,15.10
2023-03-17T04:13:34.713Z,16.00
2023-03-17T04:16:04.160Z,15.30
2023-03-17T04:18:32.646Z,15.10
2023-03-17T04:21:02.079Z,16.70
2023-03-17T04:23:56.334Z,18.40
2023-03-17T04:26:24.722Z,20.70
2023-03-17T04:28:58.774Z,20.50
2023-03-17T04:31:27.733Z,22.10
2023-03-17T04:33:56.068Z,22.10
2023-03-17T04:36:24.610Z,22.60
2023-03-17T04:38:56.119Z,24.90
2023-03-17T04:41:24.361Z,24.40
2023-03-17T04:43:52.926Z,26.50
2023-03-17T04:46:21.547Z,26.10
2023-03-17T04:48:51.459Z,25.90
2023-03-17T04:51:19.862Z,26.20
2023-03-17T04:53:49.781Z,28.00
2023-03-17T04:56:18.315Z,28.20
2023-03-17T04:58:50.652Z,31.70
2023-03-17T05:01:19.224Z,30.70
2023-03-17T05:03:47.621Z,31.90
2023-03-17T05:06:16.462Z,33.30
2023-03-17T05:08:45.173Z,33.90
2023-03-17T05:11:14.823Z,31.80
2023-03-17T05:13:44.617Z,31.60
2023-03-17T05:16:13.098Z,30.50
2023-03-17T05:18:42.196Z,29.40
2023-03-17T05:21:10.796Z,29.50
2023-03-17T05:23:39.172Z,26.60
2023-03-17T05:26:10.825Z,24.90
2023-03-17T05:28:41.399Z,23.70
2023-03-17T05:31:11.186Z,22.10
2023-03-17T05:33:39.970Z,21.60
2023-03-17T05:36:09.915Z,18.60
2023-03-17T05:38:38.543Z,16.80
2023-03-17T05:41:07.028Z,15.60
2023-03-17T05:43:35.587Z,12.90
2023-03-17T05:46:04.247Z,11.70
2023-03-17T05:48:33.281Z,9.80
2023-03-17T05:51:01.928Z,8.00
2023-03-17T05:53:31.374Z,8.20
2023-03-17T05:56:00.961Z,7.40
2023-03-17T05:58:30.143Z,7.80
2023-03-17T06:03:32.035Z,6.60
2023-03-17T06:06:00.872Z,7.50
2023-03-17T06:08:29.919Z,7.20
2023-03-17T06:10:59.189Z,6.70
2023-03-17T06:13:27.583Z,7.60
2023-03-17T06:15:59.951Z,7.30
2023-03-17T06:18:31.622Z,7.50
2023-03-17T06:21:03.538Z,7.80
2023-03-17T06:23:35.523Z,7.60
2023-03-17T06:26:13.496Z,7.60
2023-03-17T06:28:44.496Z,7.90
2023-03-17T06:31:53.606Z,8.30
2023-03-17T06:34:27.582Z,8.10
2023-03-17T06:36:59.331Z,8.90
2023-03-17T06:39:54.211Z,8.70
2023-03-17T06:42:24.764Z,8.90
2023-03-17T06:44:55.533Z,8.50
2023-03-17T06:47:26.626Z,8.70
2023-03-17T06:50:01.785Z,9.00
2023-03-17T06:53:01.168Z,9.80
2023-03-17T06:55:32.977Z,10.50
2023-03-17T06:58:16.210Z,9.10
2023-03-17T07:00:49.661Z,9.20
2023-03-17T07:03:21.933Z,9.90
2023-03-17T07:05:55.302Z,9.80
2023-03-17T07:13:41.172Z,10.50
2023-03-17T07:23:42.939Z,12.20
2023-03-17T07:26:11.555Z,12.40
2023-03-17T07:28:47.060Z,12.90
2023-03-17T07:31:18.500Z,13.80
2023-03-17T07:34:12.929Z,13.10
2023-03-17T07:36:43.453Z,13.90
2023-03-17T07:39:12.188Z,14.10
2023-03-17T07:41:41.635Z,15.20
2023-03-17T07:44:11.675Z,15.20
2023-03-17T07:46:40.276Z,15.40
2023-03-17T07:49:09.556Z,15.30
2023-03-17T07:51:43.316Z,14.00
2023-03-17T07:54:14.848Z,15.00
2023-03-17T07:56:44.263Z,14.50
2023-03-17T07:59:12.685Z,14.60
2023-03-17T08:01:40.902Z,13.80
2023-03-17T08:04:11.098Z,13.00
2023-03-17T08:06:42.128Z,11.90
2023-03-17T08:09:11.482Z,10.90
2023-03-17T08:11:40.525Z,10.60
2023-03-17T08:14:09.756Z,10.50
2023-03-17T08:16:38.378Z,10.20
2023-03-17T08:19:08.016Z,10.10
2023-03-17T08:21:41.522Z,10.10
2023-03-17T08:24:10.356Z,9.40
2023-03-17T08:26:38.717Z,10.10
2023-03-17T08:29:39.982Z,9.70
2023-03-17T08:32:08.963Z,9.90
2023-03-17T08:34:37.707Z,9.80
2023-03-17T08:37:11.678Z,10.40
2023-03-17T08:39:45.787Z,10.40
2023-03-17T08:42:17.401Z,10.60
2023-03-17T08:44:45.961Z,9.80
2023-03-17T08:47:14.250Z,9.30
2023-03-17T08:49:44.017Z,9.30
2023-03-17T08:52:13.273Z,9.30
2023-03-17T08:54:42.657Z,8.90
2023-03-17T08:57:14.033Z,9.80
2023-03-17T08:59:44.022Z,9.90
2023-03-17T09:02:12.928Z,9.10
2023-03-17T09:04:42.710Z,8.90
2023-03-17T09:07:11.702Z,9.10
2023-03-17T09:09:40.233Z,9.30
2023-03-17T09:12:09.689Z,19.00
2023-03-17T09:14:44.096Z,24.80
2023-03-17T09:17:14.080Z,26.10
2023-03-17T09:19:43.780Z,17.40
2023-03-17T09:22:17.798Z,18.70
2023-03-17T09:24:46.859Z,19.80
2023-03-17T09:27:18.913Z,21.30
2023-03-17T09:29:47.643Z,15.80
2023-03-17T09:32:16.351Z,14.20
2023-03-17T09:37:40.309Z,12.20
2023-03-17T09:40:13.313Z,11.20
2023-03-17T09:42:50.677Z,9.90
2023-03-17T09:45:32.391Z,10.30
2023-03-17T09:48:08.669Z,10.20
2023-03-17T09:50:46.447Z,10.50
2023-03-17T09:53:20.999Z,18.80
2023-03-17T09:55:52.934Z,17.50
2023-03-17T10:01:20.382Z,19.60
2023-03-17T10:03:51.019Z,20.10
2023-03-17T10:07:01.632Z,21.20
2023-03-17T10:09:42.108Z,23.40
2023-03-17T10:12:16.003Z,21.50
2023-03-17T10:15:06.870Z,18.40
2023-03-17T10:17:37.006Z,19.50
2023-03-17T10:20:18.940Z,17.90
2023-03-17T10:22:49.181Z,12.90
2023-03-17T10:25:22.867Z,11.70
2023-03-17T10:28:16.285Z,11.30
2023-03-17T10:30:45.077Z,13.80
2023-03-17T10:33:13.558Z,15.30
2023-03-17T10:35:45.188Z,11.80
2023-03-17T10:46:01.051Z,9.00
2023-03-17T10:48:31.672Z,7.90
2023-03-17T10:51:00.417Z,7.50
2023-03-17T10:53:28.992Z,7.90
2023-03-17T10:56:11.219Z,7.80
2023-03-17T10:58:51.482Z,7.90
2023-03-17T11:01:28.118Z,7.80
2023-03-17T11:03:57.764Z,10.50
2023-03-17T11:06:44.641Z,13.80
2023-03-17T11:09:17.083Z,16.00
2023-03-17T11:12:02.028Z,16.80
2023-03-17T11:14:31.331Z,15.40
2023-03-17T11:17:13.657Z,12.50
2023-03-17T11:20:18.721Z,14.50
2023-03-17T11:22:55.154Z,13.40
2023-03-17T11:25:24.123Z,13.00
2023-03-17T11:28:17.097Z,12.40
2023-03-17T11:31:09.876Z,13.90
2023-03-17T11:34:03.143Z,13.50
2023-03-17T11:37:14.442Z,13.40
2023-03-17T11:40:04.367Z,15.90
2023-03-17T11:43:09.595Z,15.90
2023-03-17T11:45:41.192Z,15.90
2023-03-17T11:48:22.972Z,18.80
2023-03-17T11:51:12.652Z,18.70
2023-03-17T11:54:26.248Z,18.10
2023-03-17T11:57:03.468Z,16.30
2023-03-17T11:59:40.999Z,17.50
2023-03-17T12:02:32.759Z,18.90
2023-03-17T12:05:20.400Z,19.80
2023-03-17T12:07:53.397Z,22.80
2023-03-17T12:10:34.202Z,24.20
2023-03-17T12:13:07.500Z,22.70
2023-03-17T12:15:58.424Z,21.40
2023-03-17T12:19:11.646Z,21.10
2023-03-17T12:21:54.564Z,17.40
2023-03-17T12:24:26.971Z,12.20
2023-03-17T12:27:28.955Z,10.20
2023-03-17T12:29:58.168Z,9.10
2023-03-17T12:33:06.371Z,9.20
2023-03-17T12:35:39.170Z,8.10
2023-03-17T12:38:20.221Z,7.90
2023-03-17T12:41:18.528Z,7.60
2023-03-17T12:44:15.990Z,7.80
2023-03-17T12:46:55.075Z,7.70
2023-03-17T12:49:48.094Z,7.70
2023-03-17T12:52:39.619Z,8.00
2023-03-17T12:55:19.846Z,8.20
2023-03-17T12:58:25.882Z,8.40
2023-03-17T13:01:09.255Z,8.40
2023-03-17T13:03:38.885Z,9.00
2023-03-17T13:06:10.634Z,8.40
2023-03-17T13:08:45.648Z,8.30
2023-03-17T13:11:27.814Z,8.50
2023-03-17T13:13:59.658Z,8.80
2023-03-17T13:16:36.188Z,8.40
2023-03-17T13:19:24.390Z,8.50
2023-03-17T13:22:09.987Z,8.40
2023-03-17T13:24:48.614Z,8.30
2023-03-17T13:27:33.070Z,8.10
2023-03-17T13:30:37.261Z,8.30
2023-03-17T13:33:24.306Z,8.20
2023-03-17T13:36:12.155Z,9.30
2023-03-17T13:39:17.654Z,9.60
2023-03-17T13:42:17.986Z,9.50
2023-03-17T13:44:57.279Z,10.40
2023-03-17T13:47:28.878Z,9.80
2023-03-17T13:54:42.110Z,9.60
2023-03-17T13:57:29.915Z,9.90
2023-03-17T14:00:25.921Z,9.60
2023-03-17T14:03:27.922Z,9.60
2023-03-17T14:05:59.127Z,9.50
2023-03-17T14:08:31.628Z,9.70
2023-03-17T14:11:01.976Z,9.20
2023-03-17T14:14:15.148Z,9.60
2023-03-17T14:16:58.263Z,9.80
2023-03-17T14:19:32.447Z,9.80
2023-03-17T14:22:04.891Z,10.40
2023-03-17T14:24:33.940Z,9.40
2023-03-17T14:27:12.942Z,9.30
2023-03-17T14:29:42.082Z,9.70
2023-03-17T14:32:13.312Z,10.30
2023-03-17T14:34:46.635Z,10.00
2023-03-17T14:37:15.296Z,10.20
2023-03-17T14:39:45.265Z,10.50
2023-03-17T14:42:13.617Z,10.50
2023-03-17T14:44:43.495Z,10.20
2023-03-17T14:47:20.640Z,10.50
2023-03-17T14:50:17.020Z,10.30
2023-03-17T14:52:48.183Z,9.80
2023-03-17T14:55:16.790Z,9.90
2023-03-17T14:57:53.168Z,10.90
2023-03-17T15:00:32.351Z,9.70
2023-03-17T15:03:03.808Z,9.60
2023-03-17T15:05:38.916Z,10.10
2023-03-17T15:08:38.960Z,10.40
2023-03-17T15:11:17.236Z,9.50
2023-03-17T15:13:46.019Z,10.20
2023-03-17T15:16:23.392Z,9.80
2023-03-17T15:18:58.125Z,9.50
2023-03-17T15:21:32.901Z,8.10
2023-03-17T15:24:25.798Z,8.20
2023-03-17T15:27:03.072Z,6.70
2023-03-17T15:29:38.118Z,6.60
2023-03-17T15:32:11.446Z,6.30
2023-03-17T15:34:40.617Z,6.10
2023-03-17T15:37:19.357Z,5.80
2023-03-17T15:39:48.926Z,5.80
2023-03-17T15:42:19.520Z,6.10
2023-03-17T15:44:47.832Z,6.00
2023-03-17T15:47:17.996Z,5.70
2023-03-17T15:49:47.050Z,5.60
2023-03-17T15:52:17.276Z,5.70
2023-03-17T15:54:46.427Z,5.80
2023-03-17T15:57:14.722Z,5.20
2023-03-17T15:59:43.100Z,5.60
2023-03-17T16:02:34.331Z,5.20
2023-03-17T16:05:07.531Z,5.20
2023-03-17T16:07:36.276Z,5.20
2023-03-17T16:10:32.885Z,5.00
2023-03-17T16:13:01.456Z,5.70
2023-03-17T16:15:35.533Z,6.00
2023-03-17T16:18:06.015Z,6.30
2023-03-17T16:20:42.090Z,6.00
2023-03-17T16:23:19.554Z,7.10
2023-03-17T16:25:49.364Z,6.60
2023-03-17T16:28:25.168Z,7.20
2023-03-17T16:30:55.042Z,6.30
2023-03-17T16:33:25.143Z,6.40
2023-03-17T16:35:55.732Z,6.60
2023-03-17T16:38:25.755Z,6.50
2023-03-17T16:41:20.794Z,7.20
2023-03-17T16:43:52.346Z,7.40
2023-03-17T16:46:21.475Z,7.70
2023-03-17T16:48:51.404Z,8.60
2023-03-17T16:51:20.051Z,8.10
2023-03-17T16:53:50.632Z,8.50
2023-03-17T16:56:20.871Z,7.90
2023-03-17T16:58:52.125Z,8.30
2023-03-17T17:01:22.214Z,8.30
2023-03-17T17:03:54.470Z,9.20
2023-03-17T17:06:26.795Z,9.30
2023-03-17T17:08:55.137Z,10.40
2023-03-17T17:11:23.505Z,10.60
2023-03-17T17:13:52.012Z,10.90
2023-03-17T17:16:31.310Z,10.30
2023-03-17T17:18:59.862Z,11.30
2023-03-17T17:21:29.086Z,10.70
2023-03-17T17:23:58.898Z,10.90
2023-03-17T17:26:27.826Z,11.40
2023-03-17T17:28:56.556Z,12.80
2023-03-17T17:31:25.283Z,11.60
2023-03-17T17:33:54.221Z,12.40
2023-03-17T17:36:23.063Z,12.50
2023-03-17T17:38:52.166Z,13.10
2023-03-17T17:41:23.349Z,12.40
2023-03-17T17:43:53.890Z,12.90
2023-03-17T17:46:23.799Z,13.00
2023-03-17T17:48:52.757Z,12.90
2023-03-17T17:51:29.123Z,13.30
2023-03-17T17:53:58.319Z,13.70
2023-03-17T17:56:27.218Z,13.50
2023-03-17T17:58:58.001Z,13.00
2023-03-17T18:01:27.083Z,13.50
2023-03-17T18:04:03.609Z,13.80
2023-03-17T18:06:32.278Z,14.30
2023-03-17T18:09:02.105Z,14.50
2023-03-17T18:11:32.514Z,15.00
2023-03-17T18:14:01.389Z,14.30
2023-03-17T18:16:31.238Z,15.00
2023-03-17T18:19:00.670Z,14.20
2023-03-17T18:21:30.321Z,15.30
2023-03-17T18:23:58.795Z,15.50
2023-03-17T18:26:28.839Z,15.60
2023-03-17T18:28:57.542Z,16.30
2023-03-17T18:31:29.449Z,15.50
2023-03-17T18:34:00.573Z,15.70
2023-03-17T18:36:29.923Z,16.10
2023-03-17T18:38:59.024Z,15.20
2023-03-17T18:41:27.588Z,15.60
2023-03-17T18:43:56.379Z,16.10
2023-03-17T18:46:49.914Z,15.70
2023-03-17T18:49:21.517Z,16.10
2023-03-17T18:51:50.047Z,16.40
2023-03-17T18:54:18.256Z,17.50
2023-03-17T18:56:46.654Z,17.50
2023-03-17T18:59:15.706Z,16.80
2023-03-17T19:01:50.704Z,17.30
2023-03-17T19:04:19.249Z,17.90
2023-03-17T19:07:13.548Z,17.30
2023-03-17T19:09:44.069Z,18.50
2023-03-17T19:12:17.100Z,17.60
2023-03-17T19:14:45.718Z,18.50
2023-03-17T19:17:14.651Z,18.80
2023-03-17T19:19:44.401Z,18.50
2023-03-17T19:22:16.501Z,18.10
2023-03-17T19:25:37.154Z,18.80
2023-03-17T19:28:59.793Z,18.60
2023-03-17T19:31:28.552Z,18.70
2023-03-17T19:33:56.822Z,19.50
2023-03-17T19:36:25.626Z,19.60
2023-03-17T19:41:37.185Z,19.70
2023-03-17T19:46:38.556Z,20.40
2023-03-17T19:49:07.358Z,20.10
2023-03-17T19:51:36.160Z,21.70
2023-03-17T19:54:12.054Z,20.40
2023-03-17T19:56:43.749Z,21.70
2023-03-17T19:59:17.864Z,21.90
2023-03-17T20:01:50.494Z,21.30
2023-03-17T20:04:44.060Z,21.70
2023-03-17T20:07:17.589Z,21.90
2023-03-17T20:09:53.674Z,21.60
2023-03-17T20:12:46.927Z,21.80
2023-03-17T20:15:16.899Z,22.30
2023-03-17T20:17:45.924Z,23.00
2023-03-17T20:20:19.863Z,21.30
2023-03-17T20:23:15.125Z,22.20
2023-03-17T20:25:47.126Z,22.10
2023-03-17T20:28:17.806Z,22.50
2023-03-17T20:30:46.478Z,21.80
2023-03-17T20:33:16.915Z,21.10
2023-03-17T20:35:48.773Z,21.10
2023-03-17T20:38:19.080Z,21.90
2023-03-17T20:40:47.681Z,21.70
2023-03-17T20:43:20.322Z,22.20
2023-03-17T20:45:53.812Z,22.40
2023-03-17T20:48:24.820Z,23.00
2023-03-17T20:50:58.786Z,21.60
2023-03-17T20:53:30.551Z,23.40
2023-03-17T20:55:59.401Z,22.50
2023-03-17T20:58:29.934Z,22.60
2023-03-17T21:01:03.778Z,22.90
2023-03-17T21:03:32.654Z,21.70
2023-03-17T21:06:01.523Z,22.40
2023-03-17T21:08:31.442Z,21.30
2023-03-17T21:11:01.408Z,21.80
2023-03-17T21:13:29.780Z,22.40
2023-03-17T21:16:24.972Z,21.80
2023-03-17T21:18:53.892Z,20.70
2023-03-17T21:21:22.701Z,21.60
2023-03-17T21:23:51.383Z,20.80
2023-03-17T21:26:23.167Z,20.50
2023-03-17T21:28:52.768Z,21.10
2023-03-17T21:31:21.763Z,20.80
2023-03-17T21:33:50.907Z,20.40
2023-03-17T21:36:21.162Z,19.80
2023-03-17T21:38:49.415Z,20.30
2023-03-17T21:41:39.759Z,19.80
2023-03-17T21:44:09.921Z,19.50
2023-03-17T21:46:46.734Z,20.10
2023-03-17T21:49:17.422Z,19.90
2023-03-17T21:51:46.806Z,20.10
2023-03-17T21:54:15.656Z,18.70
2023-03-17T21:56:50.112Z,18.80
2023-03-17T21:59:19.138Z,18.60
2023-03-17T22:01:48.073Z,18.90
2023-03-17T22:07:41.344Z,23.20
2023-03-17T22:10:11.630Z,22.50
2023-03-17T22:12:40.437Z,23.40
2023-03-17T22:15:10.535Z,21.80
2023-03-17T22:19:24.676Z,21.20
2023-03-17T22:21:53.973Z,17.60
2023-03-17T22:24:23.286Z,17.00
2023-03-17T22:26:51.700Z,16.80
2023-03-17T22:29:23.320Z,18.30
2023-03-17T22:31:52.583Z,16.40
2023-03-17T22:34:20.849Z,17.40
2023-03-17T22:36:53.035Z,17.00
2023-03-17T22:39:21.288Z,18.50
2023-03-17T22:41:58.056Z,19.50
2023-03-17T22:44:26.455Z,24.00
2023-03-17T22:46:54.897Z,24.20
2023-03-17T22:49:24.015Z,25.30
2023-03-17T22:51:52.256Z,28.10
2023-03-17T22:54:22.097Z,26.90
2023-03-17T22:56:54.121Z,21.50
2023-03-17T22:59:22.473Z,20.30
2023-03-17T23:01:53.070Z,19.20
2023-03-17T23:04:21.691Z,18.80
2023-03-17T23:06:53.088Z,18.10
2023-03-17T23:09:21.489Z,18.80
2023-03-17T23:11:53.538Z,17.90
2023-03-17T23:14:25.097Z,18.50
2023-03-17T23:16:53.534Z,19.40
2023-03-17T23:21:55.136Z,17.80
2023-03-17T23:24:24.295Z,17.50
2023-03-17T23:26:55.941Z,19.00
2023-03-17T23:29:24.635Z,19.90
2023-03-17T23:31:52.809Z,21.40
2023-03-17T23:34:22.660Z,21.50
2023-03-17T23:36:50.891Z,20.40
2023-03-17T23:39:20.925Z,18.10
2023-03-17T23:41:49.353Z,16.60
2023-03-17T23:44:22.164Z,17.80
2023-03-17T23:46:51.584Z,17.20
2023-03-17T23:49:19.847Z,18.50
2023-03-17T23:51:49.541Z,17.90
2023-03-17T23:54:18.257Z,18.70
2023-03-17T23:56:52.897Z,16.00
2023-03-17T23:59:21.247Z,17.70
